Flugplatz Hoppstädten-Weiersbach

Für EDRH sind keine METAR/TAF Berichte vorhanden.
Es werden die Flugwettermeldungen vom Flugplatz Ramstein Air Base in 35 km Entfernung angezeigt.

Bericht für ETAR

vom 23.08. um 11:56 UTC

Wind 11 kt aus 50° in Böen 15 kt

Sichtweite 10 km oder mehr

keine Wolken

Temperatur 27.0°C

Taupunkt 10.0°C

Luftfeuchtigkeit 34%

Luftdruck 1024 hPa

ETAR 231156Z 05011G15KT 9999 CLR 27/10 A3024 RMK AO2A SLPNO

Prognose für ETAR

vom 23.08. um 00:00 UTC

Zwischen 00:00 UTC und 00:00 UTC

Wind 10 kt aus 70° in Böen 15 kt

Sichtweite 10 km oder mehr

keine Wolken


Zwischen 00:00 und 00:00 UTC übergehend zu

variable Windrichtung mit 6 kt

Sichtweite 10 km oder mehr

keine Wolken


Am 24.08. zwischen 00:00 und 00:00 UTC übergehend zu

Wind 9 kt aus 80°

Sichtweite 10 km oder mehr

keine Wolken

TAF ETAR 231000Z 2310/2416 07010G15KT 9999 SKC QNH3020INS BECMG 2319/2320 VRB06KT 9999 SKC QNH3007INS BECMG 2410/2411 08009KT 9999 SKC QNH3017INS TX26/2314Z TN13/2405Z
Impressum